Time;durP1;ratioP1;P1;durP2;ratioP2;P2;SDS_P1;SDS_P2;PMS_P1;PMS_P2;Temp;Humidity;BMP_temperature;BMP_pressure;BME280_temperature;BME280_humidity;BME280_pressure;Samples;Min_cycle;Max_cycle;Signal;HPM_P1;HPM_P2
2024/01/23 00:02:26;;;;;;;2.38;2.08;;;23.60;45.30;;;;;;6300287;27;80510;-61
2024/01/23 00:05:26;;;;;;;3.33;2.13;;;23.60;45.40;;;;;;6301471;27;80380;-60
2024/01/23 00:08:27;;;;;;;2.70;2.05;;;23.60;45.20;;;;;;6290879;27;80338;-61
2024/01/23 00:11:27;;;;;;;2.45;1.70;;;23.50;45.60;;;;;;6301790;27;81035;-61
2024/01/23 00:14:40;;;;;;;2.30;1.77;;;23.50;46.60;;;;;;6300079;27;80398;-62
2024/01/23 00:17:40;;;;;;;2.92;1.80;;;23.50;47.20;;;;;;6287195;27;80456;-63
2024/01/23 00:20:41;;;;;;;2.10;1.63;;;23.50;47.50;;;;;;6301088;27;80602;-63
2024/01/23 00:23:41;;;;;;;2.90;2.05;;;23.40;46.00;;;;;;6302533;27;82069;-62
2024/01/23 00:26:41;;;;;;;2.38;1.70;;;23.50;46.60;;;;;;6301488;27;83510;-64
2024/01/23 00:29:42;;;;;;;2.20;1.80;;;23.50;46.90;;;;;;6300437;27;82416;-65
2024/01/23 00:32:43;;;;;;;2.38;1.67;;;23.50;46.10;;;;;;6301159;27;80297;-65
2024/01/23 00:35:43;;;;;;;3.08;1.92;;;23.50;45.70;;;;;;6301609;27;80433;-65
2024/01/23 00:38:44;;;;;;;3.58;2.00;;;23.50;45.80;;;;;;6300804;27;80400;-65
2024/01/23 00:41:44;;;;;;;2.75;1.73;;;23.50;45.40;;;;;;6301642;27;80977;-65
2024/01/23 00:44:44;;;;;;;2.55;2.15;;;23.50;45.40;;;;;;6301372;27;80471;-65
2024/01/23 00:47:45;;;;;;;1.77;1.67;;;23.50;45.10;;;;;;6301407;27;80369;-64
2024/01/23 00:50:46;;;;;;;2.60;1.77;;;23.50;45.20;;;;;;6302439;27;80224;-62
2024/01/23 00:53:46;;;;;;;2.72;1.92;;;23.50;45.10;;;;;;6290261;27;81377;-61
2024/01/23 00:56:47;;;;;;;2.33;1.90;;;23.50;45.00;;;;;;6289496;27;80433;-60
2024/01/23 00:59:47;;;;;;;3.13;2.00;;;23.50;45.10;;;;;;6277364;27;80245;-60
2024/01/23 01:02:48;;;;;;;2.53;1.95;;;23.50;45.10;;;;;;6295340;27;81659;-61
2024/01/23 01:05:48;;;;;;;3.15;2.03;;;23.50;44.90;;;;;;6285524;27;83350;-61
2024/01/23 01:08:49;;;;;;;3.00;2.20;;;23.50;45.20;;;;;;6277319;27;80521;-60
2024/01/23 01:11:49;;;;;;;2.38;1.90;;;23.50;45.10;;;;;;6303314;27;80862;-61
2024/01/23 01:14:49;;;;;;;2.53;1.85;;;23.50;45.20;;;;;;6290279;27;80430;-59
2024/01/23 01:17:50;;;;;;;2.10;1.88;;;23.50;45.20;;;;;;6299160;27;81196;-60
2024/01/23 01:20:50;;;;;;;3.83;1.70;;;23.50;44.90;;;;;;6293069;27;80527;-60
2024/01/23 01:23:52;;;;;;;2.50;2.13;;;23.50;44.90;;;;;;6276132;27;80258;-61
2024/01/23 01:26:52;;;;;;;2.45;1.95;;;23.50;45.10;;;;;;6284451;27;82552;-62
2024/01/23 01:29:53;;;;;;;4.00;2.47;;;23.50;45.30;;;;;;6289931;27;80477;-61
2024/01/23 01:32:53;;;;;;;2.05;1.75;;;23.50;45.20;;;;;;6275779;27;80429;-65
2024/01/23 01:35:54;;;;;;;2.33;2.00;;;23.50;45.40;;;;;;6276283;27;80033;-65
2024/01/23 01:39:00;;;;;;;2.10;1.90;;;23.50;45.20;;;;;;6275864;27;82368;-63
2024/01/23 01:42:00;;;;;;;2.60;2.20;;;23.50;45.00;;;;;;6276798;27;80646;-63
2024/01/23 01:45:03;;;;;;;2.00;1.85;;;23.50;44.80;;;;;;6276256;27;82007;-63
2024/01/23 01:48:04;;;;;;;2.38;2.05;;;23.50;45.30;;;;;;6276471;27;80430;-62
2024/01/23 01:51:05;;;;;;;3.05;2.15;;;23.50;45.20;;;;;;6276982;27;80326;-63
2024/01/23 01:54:06;;;;;;;2.63;2.25;;;23.50;45.10;;;;;;6301107;27;81608;-62
2024/01/23 01:57:06;;;;;;;2.70;2.15;;;23.50;44.70;;;;;;6300452;27;80582;-62
2024/01/23 02:00:07;;;;;;;2.85;2.28;;;23.50;44.50;;;;;;6279613;27;80582;-54
2024/01/23 02:03:11;;;;;;;2.05;1.83;;;23.50;44.50;;;;;;6282437;27;80592;-50
2024/01/23 02:06:12;;;;;;;3.35;2.03;;;23.50;44.50;;;;;;6289245;27;80363;-50
2024/01/23 02:09:13;;;;;;;3.13;1.60;;;23.50;44.50;;;;;;6291071;27;81694;-48
2024/01/23 02:12:13;;;;;;;2.60;1.80;;;23.50;44.80;;;;;;6295446;27;80010;-52
2024/01/23 02:15:13;;;;;;;3.53;2.10;;;23.40;44.90;;;;;;6294873;27;80421;-54
2024/01/23 02:18:14;;;;;;;2.38;1.83;;;23.40;44.80;;;;;;6300468;27;80319;-66
2024/01/23 02:21:15;;;;;;;2.78;2.25;;;23.50;44.90;;;;;;6301796;27;81284;-67
2024/01/23 02:24:15;;;;;;;2.40;1.95;;;23.50;44.80;;;;;;6296007;27;80335;-66
2024/01/23 02:27:16;;;;;;;2.40;1.88;;;23.50;44.90;;;;;;6280014;27;80547;-66
2024/01/23 02:30:16;;;;;;;2.75;2.20;;;23.50;44.90;;;;;;6280175;27;80614;-67
2024/01/23 02:33:17;;;;;;;2.75;2.10;;;23.50;44.70;;;;;;6281168;27;81252;-67
2024/01/23 02:36:17;;;;;;;2.88;1.90;;;23.50;44.80;;;;;;6280768;27;81487;-65
2024/01/23 02:39:18;;;;;;;2.05;1.85;;;23.50;44.90;;;;;;6280248;27;80560;-63
2024/01/23 02:42:18;;;;;;;1.98;1.73;;;23.50;45.10;;;;;;6279294;27;80396;-63
2024/01/23 02:45:19;;;;;;;2.95;2.30;;;23.50;44.90;;;;;;6280885;27;82961;-64
2024/01/23 02:48:19;;;;;;;2.50;1.83;;;23.50;45.20;;;;;;6278740;27;80663;-62
2024/01/23 02:51:20;;;;;;;3.33;2.10;;;23.50;44.80;;;;;;6279614;27;82557;-63
2024/01/23 02:54:20;;;;;;;2.70;1.95;;;23.50;45.10;;;;;;6278817;27;80392;-57
2024/01/23 02:57:21;;;;;;;3.83;1.92;;;23.50;45.20;;;;;;6276882;27;81301;-52
2024/01/23 03:00:21;;;;;;;2.17;1.98;;;23.50;45.10;;;;;;6303652;27;84243;-55
2024/01/23 03:03:22;;;;;;;2.75;2.20;;;23.50;44.60;;;;;;6303281;27;80915;-55
2024/01/23 03:06:22;;;;;;;3.10;2.03;;;23.50;44.30;;;;;;6295541;27;80573;-53
2024/01/23 03:09:23;;;;;;;2.70;2.00;;;23.50;44.30;;;;;;6295905;27;80291;-54
2024/01/23 03:12:23;;;;;;;3.15;2.10;;;23.50;44.10;;;;;;6297558;27;80605;-54
2024/01/23 03:15:24;;;;;;;3.30;2.20;;;23.50;45.60;;;;;;6303155;27;80330;-54
2024/01/23 03:18:24;;;;;;;2.15;1.70;;;23.50;45.20;;;;;;6301747;27;81014;-51
2024/01/23 03:21:25;;;;;;;2.75;2.00;;;23.50;46.30;;;;;;6292789;27;80450;-49
2024/01/23 03:24:25;;;;;;;2.72;1.88;;;23.50;45.10;;;;;;6277528;27;80395;-48
2024/01/23 03:27:26;;;;;;;2.78;2.00;;;23.50;44.10;;;;;;6277882;27;80927;-52
2024/01/23 03:30:26;;;;;;;3.25;2.20;;;23.50;44.10;;;;;;6281002;27;80926;-53
2024/01/23 03:33:27;;;;;;;3.75;2.10;;;23.50;44.00;;;;;;6295384;27;80671;-54
2024/01/23 03:36:27;;;;;;;3.15;1.88;;;23.50;43.80;;;;;;6299559;27;80577;-54
2024/01/23 03:39:28;;;;;;;2.53;2.00;;;23.50;44.00;;;;;;6302887;27;80442;-54
2024/01/23 03:42:28;;;;;;;2.58;2.10;;;23.50;43.80;;;;;;6306064;27;80856;-54
2024/01/23 03:45:29;;;;;;;2.08;1.80;;;23.50;43.60;;;;;;6294360;27;80389;-54
2024/01/23 03:48:29;;;;;;;2.85;2.10;;;23.50;43.30;;;;;;6258406;27;80446;-63
2024/01/23 03:51:30;;;;;;;2.00;1.80;;;23.50;43.50;;;;;;6263890;27;80413;-64
2024/01/23 03:54:30;;;;;;;3.30;2.10;;;23.50;44.20;;;;;;6277752;27;83478;-63
2024/01/23 03:57:32;;;;;;;2.85;2.25;;;23.50;44.00;;;;;;6276570;27;82994;-63
2024/01/23 04:00:32;;;;;;;1.98;1.77;;;23.50;44.10;;;;;;6274367;27;80813;-62
2024/01/23 04:03:32;;;;;;;2.45;1.80;;;23.50;44.90;;;;;;6263947;27;80302;-64
2024/01/23 04:06:33;;;;;;;2.25;1.95;;;23.50;44.40;;;;;;6267829;27;80883;-50
2024/01/23 04:09:34;;;;;;;3.20;2.13;;;23.50;44.40;;;;;;6255333;27;80433;-45
2024/01/23 04:12:35;;;;;;;2.22;1.80;;;23.50;44.80;;;;;;6256542;27;81062;-47
2024/01/23 04:15:36;;;;;;;3.03;1.90;;;23.50;44.30;;;;;;6272573;27;80358;-45
2024/01/23 04:18:36;;;;;;;3.80;2.33;;;23.50;44.40;;;;;;6271804;27;80741;-46
2024/01/23 04:21:37;;;;;;;2.38;1.75;;;23.50;44.20;;;;;;6277857;27;80778;-47
2024/01/23 04:24:37;;;;;;;2.10;1.90;;;23.50;44.30;;;;;;6275956;27;82519;-52
2024/01/23 04:27:38;;;;;;;2.92;1.70;;;23.60;44.20;;;;;;6265412;27;80242;-50
2024/01/23 04:30:38;;;;;;;2.45;1.85;;;23.60;44.70;;;;;;6263791;27;80562;-49
2024/01/23 04:33:39;;;;;;;2.50;1.90;;;23.60;44.90;;;;;;6262218;27;82262;-51
2024/01/23 04:36:40;;;;;;;3.92;1.70;;;23.60;44.70;;;;;;6254259;27;80560;-50
2024/01/23 04:39:40;;;;;;;3.22;2.33;;;23.70;44.40;;;;;;6255481;27;80822;-50
2024/01/23 04:42:41;;;;;;;3.13;2.15;;;23.70;44.00;;;;;;6254376;27;80852;-55
2024/01/23 04:45:41;;;;;;;2.50;1.80;;;23.70;43.70;;;;;;6255396;27;81067;-54
2024/01/23 04:48:42;;;;;;;3.10;2.20;;;23.80;43.60;;;;;;6260157;27;81021;-50
2024/01/23 04:51:43;;;;;;;3.03;2.25;;;23.80;43.60;;;;;;6259061;27;82012;-50
2024/01/23 04:54:43;;;;;;;3.08;2.22;;;23.80;43.60;;;;;;6254001;27;80704;-49
2024/01/23 04:57:44;;;;;;;2.80;2.13;;;23.80;44.40;;;;;;6254582;27;80302;-54
2024/01/23 05:00:44;;;;;;;2.38;1.92;;;23.80;44.90;;;;;;6255050;27;80797;-50
2024/01/23 05:03:45;;;;;;;2.03;1.60;;;23.80;45.50;;;;;;6254798;27;83006;-53
2024/01/23 05:06:45;;;;;;;5.75;3.20;;;23.90;45.80;;;;;;6273468;27;80793;-55
2024/01/23 05:09:46;;;;;;;4.78;3.78;;;23.90;47.00;;;;;;6264894;27;80463;-59
2024/01/23 05:12:46;;;;;;;14.95;10.75;;;24.00;47.20;;;;;;6275132;27;81450;-58
2024/01/23 05:15:46;;;;;;;8.18;5.57;;;24.00;47.60;;;;;;6272079;27;83705;-57
2024/01/23 05:18:47;;;;;;;4.97;3.40;;;24.00;46.90;;;;;;6273433;27;83292;-58
2024/01/23 05:21:48;;;;;;;3.95;2.97;;;24.10;47.10;;;;;;6265322;27;80570;-59
2024/01/23 05:24:48;;;;;;;7.68;2.95;;;24.10;47.00;;;;;;6259369;27;81961;-59
2024/01/23 05:27:49;;;;;;;6.80;2.88;;;24.10;47.50;;;;;;6259170;27;81029;-58
2024/01/23 05:30:49;;;;;;;5.03;2.60;;;24.10;46.60;;;;;;6261916;27;80655;-57
2024/01/23 05:33:50;;;;;;;4.32;3.40;;;24.10;46.80;;;;;;6268242;27;80453;-57
2024/01/23 05:36:51;;;;;;;8.02;2.58;;;24.10;46.40;;;;;;6254100;27;80676;-58
2024/01/23 05:39:51;;;;;;;4.65;2.33;;;24.10;46.10;;;;;;6261128;27;80534;-49
2024/01/23 05:42:52;;;;;;;3.47;2.25;;;24.10;45.90;;;;;;6262329;27;80776;-49
2024/01/23 05:45:53;;;;;;;8.23;2.15;;;24.00;45.90;;;;;;6251996;27;80777;-48
2024/01/23 05:48:53;;;;;;;4.20;2.63;;;24.00;46.10;;;;;;6253445;27;80973;-49
2024/01/23 05:51:54;;;;;;;6.20;2.67;;;24.00;46.40;;;;;;6256523;27;80417;-47
2024/01/23 05:54:54;;;;;;;2.83;2.03;;;24.00;46.30;;;;;;6262156;27;85667;-51
2024/01/23 05:57:55;;;;;;;2.90;2.10;;;23.90;46.00;;;;;;6300991;27;81722;-49
2024/01/23 06:00:57;;;;;;;5.13;2.78;;;23.90;46.00;;;;;;6302374;27;80817;-49
2024/01/23 06:03:57;;;;;;;3.42;2.50;;;23.90;45.80;;;;;;6298088;27;80334;-50
2024/01/23 06:06:58;;;;;;;4.07;2.25;;;23.80;46.10;;;;;;6303656;27;81400;-49
2024/01/23 06:09:58;;;;;;;3.83;2.60;;;23.90;46.80;;;;;;6293754;27;82916;-48
2024/01/23 06:12:59;;;;;;;3.50;2.42;;;23.90;45.50;;;;;;6299491;27;80591;-52
2024/01/23 06:15:59;;;;;;;4.43;2.60;;;23.90;45.30;;;;;;6296278;27;83418;-53
2024/01/23 06:19:00;;;;;;;4.63;2.47;;;23.80;45.40;;;;;;6302808;27;81158;-53
2024/01/23 06:22:00;;;;;;;4.60;2.58;;;23.80;45.30;;;;;;6304107;27;80956;-52
2024/01/23 06:25:01;;;;;;;3.67;2.72;;;23.90;45.30;;;;;;6303673;27;80559;-52
2024/01/23 06:28:01;;;;;;;2.65;2.45;;;23.90;45.30;;;;;;6302913;27;80992;-54
2024/01/23 06:31:02;;;;;;;3.47;2.83;;;23.80;45.30;;;;;;6294848;27;85651;-60
2024/01/23 06:34:04;;;;;;;4.75;3.20;;;23.80;45.40;;;;;;6291481;27;80105;-47
2024/01/23 06:37:05;;;;;;;4.22;2.70;;;23.80;46.50;;;;;;6296308;27;80444;-49
2024/01/23 06:40:05;;;;;;;3.33;3.03;;;23.70;46.20;;;;;;6295914;27;80867;-46
2024/01/23 06:43:06;;;;;;;4.10;3.08;;;23.70;46.00;;;;;;6303358;27;80384;-47
2024/01/23 06:46:06;;;;;;;5.15;2.90;;;23.70;45.60;;;;;;6294724;27;80336;-49
2024/01/23 06:49:07;;;;;;;6.05;3.25;;;23.70;45.40;;;;;;6288117;27;82533;-46
2024/01/23 06:52:07;;;;;;;4.10;3.13;;;23.60;45.30;;;;;;6291874;27;80479;-54
2024/01/23 06:55:08;;;;;;;4.43;3.30;;;23.60;45.10;;;;;;6298414;27;81245;-51
2024/01/23 06:58:08;;;;;;;3.15;2.58;;;23.60;45.10;;;;;;6296805;27;80731;-54
2024/01/23 07:01:08;;;;;;;3.30;2.60;;;23.60;45.00;;;;;;6295781;27;81137;-52
2024/01/23 07:04:09;;;;;;;3.55;2.90;;;23.50;44.80;;;;;;6291084;27;82899;-54
2024/01/23 07:07:09;;;;;;;8.05;3.83;;;23.50;44.70;;;;;;6298172;27;81090;-51
2024/01/23 07:10:10;;;;;;;6.88;3.28;;;23.50;44.60;;;;;;6297163;27;80929;-56
2024/01/23 07:13:11;;;;;;;4.53;3.63;;;23.50;44.40;;;;;;6296569;27;80930;-55
2024/01/23 07:16:11;;;;;;;9.43;5.75;;;23.50;44.10;;;;;;6301249;27;80637;-52
2024/01/23 07:19:12;;;;;;;9.07;5.13;;;23.50;44.50;;;;;;6275594;27;80727;-56
2024/01/23 07:22:12;;;;;;;12.18;5.85;;;23.50;43.60;;;;;;6277112;27;81843;-55
2024/01/23 07:25:13;;;;;;;10.00;5.50;;;23.50;44.00;;;;;;6275670;27;80971;-56
2024/01/23 07:28:13;;;;;;;9.10;5.50;;;23.50;44.00;;;;;;6272351;27;80459;-57
2024/01/23 07:31:14;;;;;;;8.82;5.43;;;23.50;43.90;;;;;;6275399;27;80903;-55
2024/01/23 07:34:15;;;;;;;11.18;5.53;;;23.50;43.90;;;;;;6274853;27;80424;-57
2024/01/23 07:37:15;;;;;;;8.57;5.47;;;23.50;43.70;;;;;;6271163;27;80978;-58
2024/01/23 07:40:16;;;;;;;8.95;5.60;;;23.50;43.70;;;;;;6270452;27;80925;-55
2024/01/23 07:43:17;;;;;;;9.05;4.65;;;23.50;43.30;;;;;;6270040;27;80622;-57
2024/01/23 07:46:17;;;;;;;7.72;4.70;;;23.50;43.20;;;;;;6271715;27;80633;-57
2024/01/23 07:49:18;;;;;;;10.07;5.15;;;23.50;43.10;;;;;;6271375;27;80285;-48
2024/01/23 07:52:21;;;;;;;7.75;4.47;;;23.50;43.00;;;;;;6274368;27;80679;-49
2024/01/23 07:55:22;;;;;;;6.93;4.40;;;23.50;43.10;;;;;;6274467;27;81133;-49
2024/01/23 07:58:22;;;;;;;6.07;4.35;;;23.60;43.20;;;;;;6274108;27;80407;-48
2024/01/23 08:01:23;;;;;;;8.07;4.80;;;23.60;43.10;;;;;;6271155;27;84063;-49
2024/01/23 08:04:23;;;;;;;6.25;4.28;;;23.60;43.20;;;;;;6254808;27;80843;-52
2024/01/23 08:07:24;;;;;;;6.57;3.78;;;23.70;43.30;;;;;;6277518;27;80143;-51
2024/01/23 08:10:24;;;;;;;6.53;4.40;;;23.70;43.20;;;;;;6276332;27;80508;-49
2024/01/23 08:13:25;;;;;;;7.30;4.25;;;23.80;43.30;;;;;;6276611;27;81284;-51
2024/01/23 08:16:25;;;;;;;6.22;4.35;;;23.90;43.30;;;;;;6276706;27;80415;-53
2024/01/23 08:19:26;;;;;;;6.95;3.90;;;23.90;43.30;;;;;;6276504;27;80407;-53
2024/01/23 08:22:26;;;;;;;6.18;4.03;;;24.00;43.20;;;;;;6263297;27;80249;-51
2024/01/23 08:25:27;;;;;;;8.52;4.85;;;24.00;43.10;;;;;;6260288;27;80829;-62
2024/01/23 08:28:28;;;;;;;6.47;4.55;;;24.00;43.30;;;;;;6254070;27;80139;-62
2024/01/23 08:31:28;;;;;;;8.63;4.07;;;24.00;43.30;;;;;;6276649;27;80138;-62
2024/01/23 08:34:29;;;;;;;5.57;4.07;;;24.10;43.30;;;;;;6251541;27;81160;-63
2024/01/23 08:37:29;;;;;;;6.13;4.30;;;24.10;43.30;;;;;;6251854;27;80356;-63
2024/01/23 08:40:30;;;;;;;6.22;4.25;;;24.10;43.60;;;;;;6251540;27;81709;-63
2024/01/23 08:43:30;;;;;;;6.63;4.40;;;24.20;43.70;;;;;;6252527;27;80578;-65
2024/01/23 08:46:31;;;;;;;8.95;4.07;;;24.20;43.80;;;;;;6251961;27;80244;-66
2024/01/23 08:49:31;;;;;;;6.00;4.38;;;24.30;43.80;;;;;;6252322;27;80650;-65
2024/01/23 08:52:32;;;;;;;7.93;4.85;;;24.30;43.70;;;;;;6264958;27;80233;-66
2024/01/23 08:55:32;;;;;;;5.22;4.00;;;24.30;43.80;;;;;;6250397;27;81283;-65
2024/01/23 08:58:33;;;;;;;7.70;4.57;;;24.40;44.00;;;;;;6273383;27;80833;-66
2024/01/23 09:01:33;;;;;;;8.38;4.70;;;24.40;43.80;;;;;;6285201;27;80961;-64
2024/01/23 09:04:34;;;;;;;11.13;6.70;;;24.40;43.70;;;;;;6270219;27;80896;-64
2024/01/23 09:07:34;;;;;;;11.73;7.65;;;24.30;42.10;;;;;;6268221;27;80615;-63
2024/01/23 09:10:35;;;;;;;13.80;7.88;;;24.10;40.20;;;;;;6259566;27;80503;-69
2024/01/23 09:13:35;;;;;;;13.57;9.02;;;23.90;39.60;;;;;;6258461;27;81848;-69
2024/01/23 09:16:36;;;;;;;16.20;8.57;;;23.70;39.30;;;;;;6263199;27;80374;-65
2024/01/23 09:19:36;;;;;;;13.98;8.82;;;23.60;39.20;;;;;;6272604;27;80853;-60
2024/01/23 09:22:37;;;;;;;13.43;8.95;;;23.50;39.00;;;;;;6263999;27;81169;-63
2024/01/23 09:25:37;;;;;;;12.63;7.78;;;23.30;38.80;;;;;;6274004;27;80672;-62
2024/01/23 09:28:38;;;;;;;13.27;8.07;;;23.20;39.10;;;;;;6261891;27;81812;-62
2024/01/23 09:31:38;;;;;;;12.65;7.72;;;23.10;39.10;;;;;;6262989;27;80242;-62
2024/01/23 09:34:39;;;;;;;12.50;8.38;;;23.10;39.20;;;;;;6278752;27;80834;-62
2024/01/23 09:37:39;;;;;;;12.65;7.30;;;23.00;39.00;;;;;;6264066;27;81148;-52
2024/01/23 09:40:40;;;;;;;20.73;8.00;;;22.90;39.00;;;;;;6272166;27;81553;-53
2024/01/23 09:43:42;;;;;;;15.23;7.35;;;22.90;39.10;;;;;;6256140;27;80602;-54
2024/01/23 09:46:43;;;;;;;13.45;8.27;;;22.90;39.20;;;;;;6256917;27;80496;-49
2024/01/23 09:49:44;;;;;;;11.15;6.57;;;22.90;39.30;;;;;;6273984;27;80488;-51
2024/01/23 09:52:44;;;;;;;12.70;7.47;;;22.80;39.10;;;;;;6274041;27;80545;-50
2024/01/23 09:55:45;;;;;;;15.43;7.10;;;22.80;38.90;;;;;;6266987;27;81374;-52
2024/01/23 09:58:45;;;;;;;13.23;6.63;;;22.80;39.00;;;;;;6267119;27;81607;-51
2024/01/23 10:01:47;;;;;;;11.40;7.10;;;22.80;39.00;;;;;;6266639;27;80240;-49
2024/01/23 10:04:47;;;;;;;12.85;7.43;;;22.80;38.80;;;;;;6267356;27;80543;-52
2024/01/23 10:07:48;;;;;;;13.60;6.70;;;22.90;38.70;;;;;;6275264;27;81672;-50
2024/01/23 10:10:48;;;;;;;10.43;7.03;;;22.90;38.50;;;;;;6271672;27;80537;-51
2024/01/23 10:13:49;;;;;;;13.95;6.28;;;22.90;38.50;;;;;;6275672;27;80956;-55
2024/01/23 10:16:49;;;;;;;9.40;5.57;;;22.90;38.20;;;;;;6271357;27;81054;-54
2024/01/23 10:19:50;;;;;;;12.85;6.00;;;23.00;39.80;;;;;;6266300;27;80637;-56
2024/01/23 10:22:50;;;;;;;9.45;5.88;;;23.20;40.00;;;;;;6268672;27;81341;-53
2024/01/23 10:25:51;;;;;;;11.27;5.45;;;23.40;40.20;;;;;;6273818;27;83268;-53
2024/01/23 10:28:52;;;;;;;8.93;5.63;;;23.50;40.60;;;;;;6258980;27;81587;-55
2024/01/23 10:31:52;;;;;;;8.70;5.47;;;23.50;40.90;;;;;;6264123;27;81492;-53
2024/01/23 10:34:53;;;;;;;8.65;5.72;;;23.50;41.20;;;;;;6261612;27;82562;-49
2024/01/23 10:37:53;;;;;;;9.75;5.63;;;23.50;41.50;;;;;;6263911;27;81420;-50
2024/01/23 10:40:54;;;;;;;8.43;5.30;;;23.60;41.80;;;;;;6263688;27;80876;-50
2024/01/23 10:43:54;;;;;;;7.82;5.30;;;23.70;41.90;;;;;;6272919;27;80781;-53
2024/01/23 10:46:55;;;;;;;6.60;4.60;;;23.70;42.00;;;;;;6272108;27;80790;-53
2024/01/23 10:49:55;;;;;;;7.53;5.30;;;23.80;42.30;;;;;;6275085;27;80339;-51
2024/01/23 10:52:56;;;;;;;8.23;5.78;;;23.80;42.30;;;;;;6273446;27;81854;-52
2024/01/23 10:55:57;;;;;;;7.97;5.20;;;23.80;42.80;;;;;;6276958;27;80148;-53
2024/01/23 10:58:57;;;;;;;7.55;5.18;;;23.70;43.00;;;;;;6278658;27;80524;-52
2024/01/23 11:01:58;;;;;;;7.38;5.32;;;23.80;42.90;;;;;;6268090;27;80429;-53
2024/01/23 11:04:58;;;;;;;8.65;4.88;;;23.70;42.80;;;;;;6275567;27;80482;-52
2024/01/23 11:07:59;;;;;;;8.70;5.40;;;23.80;43.00;;;;;;6267209;27;81291;-50
2024/01/23 11:11:00;;;;;;;8.10;5.22;;;23.80;43.00;;;;;;6277831;27;82171;-52
2024/01/23 11:14:00;;;;;;;9.43;5.45;;;23.70;43.30;;;;;;6257361;27;80054;-51
2024/01/23 11:17:01;;;;;;;8.38;4.93;;;23.70;43.80;;;;;;6255087;27;80283;-50
2024/01/23 11:20:01;;;;;;;8.45;5.15;;;23.70;43.60;;;;;;6267601;27;80440;-51
2024/01/23 11:23:02;;;;;;;6.93;4.80;;;23.70;43.60;;;;;;6277939;27;80482;-48
2024/01/23 11:26:03;;;;;;;13.27;5.35;;;23.70;43.90;;;;;;6264871;27;80150;-49
2024/01/23 11:29:04;;;;;;;7.35;4.70;;;23.70;44.00;;;;;;6275355;27;81605;-51
2024/01/23 11:32:04;;;;;;;10.60;5.38;;;23.80;43.90;;;;;;6271036;27;80265;-51
2024/01/23 11:35:07;;;;;;;7.05;4.60;;;23.80;43.70;;;;;;6265141;27;80982;-52
2024/01/23 11:38:07;;;;;;;6.88;4.72;;;23.80;43.80;;;;;;6271187;27;80437;-54
2024/01/23 11:41:08;;;;;;;7.15;4.78;;;23.80;43.70;;;;;;6275537;27;81421;-51
2024/01/23 11:44:08;;;;;;;9.73;5.28;;;23.80;43.70;;;;;;6274305;27;81938;-54
2024/01/23 11:47:09;;;;;;;9.65;4.80;;;23.80;43.60;;;;;;6273526;27;80500;-63
2024/01/23 11:50:09;;;;;;;8.35;5.28;;;23.90;43.60;;;;;;6270736;27;85943;-63
2024/01/23 11:53:10;;;;;;;8.48;4.60;;;23.90;43.60;;;;;;6272727;27;81189;-62
2024/01/23 11:56:10;;;;;;;9.35;5.18;;;23.90;43.60;;;;;;6265806;27;80390;-62
2024/01/23 11:59:11;;;;;;;9.82;5.65;;;24.00;43.70;;;;;;6271456;27;80222;-62
2024/01/23 12:02:12;;;;;;;8.27;5.07;;;23.90;43.50;;;;;;6277189;27;81520;-62
2024/01/23 12:05:12;;;;;;;8.40;4.72;;;24.00;43.50;;;;;;6300053;27;80763;-63
2024/01/23 12:08:13;;;;;;;7.40;5.10;;;24.00;43.80;;;;;;6303932;27;82208;-63
2024/01/23 12:11:13;;;;;;;11.05;5.75;;;24.00;43.80;;;;;;6299846;27;81114;-60
2024/01/23 12:14:14;;;;;;;10.02;5.28;;;24.00;44.20;;;;;;6303738;27;80497;-61
2024/01/23 12:17:14;;;;;;;8.73;5.95;;;24.00;43.80;;;;;;6299308;27;80353;-61
2024/01/23 12:20:15;;;;;;;8.82;5.72;;;23.90;43.40;;;;;;6299488;27;81052;-61
2024/01/23 12:23:15;;;;;;;12.25;6.05;;;23.90;43.30;;;;;;6293917;27;80054;-66
2024/01/23 12:26:17;;;;;;;10.88;5.72;;;23.80;42.90;;;;;;6299077;27;81195;-64
2024/01/23 12:29:17;;;;;;;11.55;6.38;;;23.80;42.60;;;;;;6294526;27;80622;-66
2024/01/23 12:32:18;;;;;;;12.40;6.65;;;23.80;42.00;;;;;;6281254;27;81557;-66
2024/01/23 12:35:18;;;;;;;11.00;6.20;;;23.70;42.20;;;;;;6251897;27;82293;-64
2024/01/23 12:38:19;;;;;;;9.60;5.50;;;23.70;42.00;;;;;;6255656;27;82290;-65
2024/01/23 12:41:19;;;;;;;13.60;5.75;;;23.70;42.10;;;;;;6269386;27;81478;-61
2024/01/23 12:44:20;;;;;;;15.65;6.95;;;23.60;41.90;;;;;;6291100;27;80410;-63
2024/01/23 12:47:21;;;;;;;10.55;6.03;;;23.60;41.90;;;;;;6268748;27;80580;-64
2024/01/23 12:50:22;;;;;;;10.38;6.15;;;23.60;42.00;;;;;;6264410;27;80532;-64
2024/01/23 12:53:22;;;;;;;9.93;6.05;;;23.50;41.60;;;;;;6266932;27;80930;-62
2024/01/23 12:56:23;;;;;;;10.13;6.50;;;23.50;41.70;;;;;;6269088;27;82462;-62
2024/01/23 12:59:26;;;;;;;14.45;6.20;;;23.50;41.60;;;;;;6258648;27;82032;-53
2024/01/23 13:02:26;;;;;;;14.32;7.13;;;23.60;41.30;;;;;;6256578;27;83660;-54
2024/01/23 13:05:27;;;;;;;13.20;6.43;;;23.60;41.10;;;;;;6259218;27;80883;-56
2024/01/23 13:08:28;;;;;;;10.68;6.25;;;23.70;40.70;;;;;;6288326;27;81434;-53
2024/01/23 13:11:28;;;;;;;11.75;6.32;;;23.90;40.50;;;;;;6286935;27;80810;-52
2024/01/23 13:14:31;;;;;;;11.65;6.43;;;23.90;40.10;;;;;;6282772;27;80497;-55
2024/01/23 13:17:31;;;;;;;10.35;6.10;;;23.80;40.20;;;;;;6270210;27;80420;-54
2024/01/23 13:20:32;;;;;;;10.40;5.70;;;23.80;40.10;;;;;;6265262;27;81225;-54
2024/01/23 13:23:32;;;;;;;14.60;6.32;;;23.90;40.00;;;;;;6271537;27;81514;-55
2024/01/23 13:26:33;;;;;;;11.20;5.65;;;24.00;40.00;;;;;;6269449;27;81509;-55
2024/01/23 13:29:33;;;;;;;11.52;6.45;;;24.00;39.80;;;;;;6263027;27;81930;-56
2024/01/23 13:32:34;;;;;;;10.73;5.65;;;24.20;39.70;;;;;;6265545;27;80466;-55
2024/01/23 13:35:34;;;;;;;13.95;6.95;;;24.20;39.80;;;;;;6261184;27;80414;-54
2024/01/23 13:38:35;;;;;;;13.27;7.28;;;24.10;39.80;;;;;;6272909;27;80217;-54
2024/01/23 13:41:37;;;;;;;15.27;6.85;;;24.00;39.70;;;;;;6275275;27;80387;-53
2024/01/23 13:44:38;;;;;;;13.63;6.93;;;23.90;39.90;;;;;;6284266;27;80303;-55
2024/01/23 13:47:39;;;;;;;12.85;6.10;;;23.80;39.80;;;;;;6288726;27;80845;-56
2024/01/23 13:50:39;;;;;;;10.82;5.75;;;23.70;39.80;;;;;;6275016;27;81106;-58
2024/01/23 13:53:40;;;;;;;10.25;6.25;;;23.70;39.90;;;;;;6282469;27;80940;-57
2024/01/23 13:56:41;;;;;;;11.95;6.53;;;23.70;39.90;;;;;;6285950;27;80526;-58
2024/01/23 13:59:41;;;;;;;9.45;5.78;;;23.60;39.90;;;;;;6299042;27;83106;-53
2024/01/23 14:02:42;;;;;;;9.63;5.63;;;23.60;39.90;;;;;;6290131;27;80709;-55
2024/01/23 14:05:42;;;;;;;11.52;5.90;;;23.50;40.10;;;;;;6279218;27;81364;-53
2024/01/23 14:08:45;;;;;;;9.55;5.78;;;23.50;40.40;;;;;;6254612;27;82567;-54
2024/01/23 14:11:46;;;;;;;10.25;5.43;;;23.40;40.00;;;;;;6264178;27;81426;-58
2024/01/23 14:14:46;;;;;;;8.05;5.35;;;23.40;40.00;;;;;;6258191;27;80453;-53
2024/01/23 14:17:48;;;;;;;8.90;5.70;;;23.30;39.70;;;;;;6268069;27;84125;-56
2024/01/23 14:20:48;;;;;;;9.07;6.07;;;23.30;40.00;;;;;;6261824;27;80586;-53
2024/01/23 14:23:49;;;;;;;9.68;5.57;;;23.20;40.00;;;;;;6266247;27;84703;-52
2024/01/23 14:26:49;;;;;;;11.88;6.63;;;23.20;39.90;;;;;;6255892;27;80764;-52
2024/01/23 14:29:49;;;;;;;11.52;5.57;;;23.20;39.90;;;;;;6257204;27;81509;-49
2024/01/23 14:32:50;;;;;;;10.73;5.63;;;23.10;39.80;;;;;;6280282;27;82651;-61
2024/01/23 14:35:51;;;;;;;12.38;5.70;;;23.10;39.70;;;;;;6292300;27;80720;-60
2024/01/23 14:38:51;;;;;;;8.07;5.10;;;23.10;39.80;;;;;;6283358;27;81312;-62
2024/01/23 14:41:59;;;;;;;9.65;5.32;;;23.10;39.70;;;;;;6270202;27;80379;-61
2024/01/23 14:44:59;;;;;;;9.07;5.50;;;23.10;39.80;;;;;;6266328;27;80741;-61
2024/01/23 14:48:00;;;;;;;9.90;5.30;;;23.00;39.60;;;;;;6284494;27;80445;-60
2024/01/23 14:51:00;;;;;;;8.60;5.40;;;23.00;39.70;;;;;;6284588;27;80778;-56
2024/01/23 14:54:02;;;;;;;9.23;5.20;;;23.00;39.50;;;;;;6284520;27;81699;-52
2024/01/23 14:57:02;;;;;;;9.07;4.80;;;23.00;39.40;;;;;;6296786;27;81595;-53
2024/01/23 15:00:06;;;;;;;8.52;5.30;;;22.90;39.60;;;;;;6285407;27;81455;-54
2024/01/23 15:03:06;;;;;;;10.43;5.55;;;22.90;39.50;;;;;;6284661;27;82895;-50
2024/01/23 15:06:07;;;;;;;7.88;5.55;;;22.90;39.40;;;;;;6277726;27;80920;-54
2024/01/23 15:09:12;;;;;;;8.73;5.32;;;22.90;39.50;;;;;;6270477;27;84568;-58
2024/01/23 15:12:13;;;;;;;9.43;5.20;;;22.80;39.40;;;;;;6254027;27;80989;-57
2024/01/23 15:15:13;;;;;;;7.68;5.03;;;22.80;39.40;;;;;;6272443;27;81159;-58
2024/01/23 15:18:14;;;;;;;11.02;6.03;;;22.80;39.50;;;;;;6277788;27;80348;-57
2024/01/23 15:21:14;;;;;;;7.72;4.80;;;22.80;39.50;;;;;;6278248;27;80570;-56
2024/01/23 15:24:15;;;;;;;9.30;4.65;;;22.80;39.50;;;;;;6269782;27;80819;-55
2024/01/23 15:27:16;;;;;;;11.23;4.75;;;22.80;39.50;;;;;;6253850;27;81173;-71
2024/01/23 15:30:17;;;;;;;17.38;4.88;;;22.70;39.70;;;;;;6255749;27;86012;-68
2024/01/23 15:33:17;;;;;;;11.45;4.40;;;22.80;40.90;;;;;;6266791;27;80458;-69
2024/01/23 15:36:18;;;;;;;11.40;4.90;;;22.80;41.00;;;;;;6291025;27;81779;-67
2024/01/23 15:39:20;;;;;;;8.68;5.22;;;22.90;40.80;;;;;;6299737;27;80561;-66